Northeast Philadelphia Airport Philadelphia US
ICAO: KPNE
IATA: PNE
Category: Medium
Scheduled Services: No

Elevation: 120 ft
TransAlt. 18000 ft.

Airport Communications:
PHILADELPHIA APP/DEP:123.8
ATIS:121.15
CLNC DEL:127.25
CTAF:126.9
GND:121.7
WILLIAMSPORT RDO:122.2
TWR:126.9
UNICOM:122.95

KPNE Zoom In..

If you have problems with the map follow the link
https://www.worldairports.se/pages/airport.php?
ICAO=KPNE

Runways:

(A) RW 06 length 7000 ft width 150 ft
---- / hdg 60

(B) RW 15 length 5000 ft width 150 ft
---- / hdg 153

(C) RW 24 length 7000 ft width 150 ft
ILS 111.10 / hdg 240

(D) RW 33 length 5000 ft width 150 ft
---- / hdg 333

Location; KPNE
Day. 20 / Time. 07.54 Zulu
* Altimeter: 30.13
* Temperature: -04° c. -24.8°f.
* Wind from: 330° Speed 09 kn with Gusts up to 17 kn.
Dewpoint: -13° c.
Visibility: 10 Statute Miles.
Clouds: Clear (automated report).

KPNE 200754Z AUTO 33009G17KT 10SM CLR M04/M13 A3013 RMK AO2 SNE03 SLP203 P0000 T10391128 $


Wind From 330°
Speed 09 kn.

 
 
jpsmedia worldairports.se 2020   terms of use